createdAt,value
2018-12-18T00:00:50.674Z,5.69
2018-12-18T00:03:20.680Z,5.70
2018-12-18T00:05:48.791Z,5.65
2018-12-18T00:08:16.619Z,5.64
2018-12-18T00:10:51.209Z,5.60
2018-12-18T00:13:19.343Z,5.66
2018-12-18T00:15:46.900Z,5.62
2018-12-18T00:18:14.814Z,5.64
2018-12-18T00:20:42.775Z,5.65
2018-12-18T00:23:11.275Z,5.68
2018-12-18T00:25:39.157Z,5.65
2018-12-18T00:28:08.692Z,5.55
2018-12-18T00:30:37.013Z,5.61
2018-12-18T00:33:04.973Z,5.62
2018-12-18T00:35:32.998Z,5.61
2018-12-18T00:38:01.127Z,5.58
2018-12-18T00:40:28.757Z,5.64
2018-12-18T00:42:57.132Z,5.60
2018-12-18T00:45:24.941Z,5.55
2018-12-18T00:47:54.443Z,5.57
2018-12-18T00:50:22.120Z,5.65
2018-12-18T00:52:50.174Z,5.65
2018-12-18T00:55:19.783Z,5.66
2018-12-18T00:57:47.853Z,5.60
2018-12-18T01:00:15.629Z,5.53
2018-12-18T01:02:44.754Z,5.53
2018-12-18T01:05:12.911Z,5.53
2018-12-18T01:07:40.587Z,5.51
2018-12-18T01:10:09.196Z,5.52
2018-12-18T01:12:37.215Z,5.59
2018-12-18T01:15:06.612Z,5.59
2018-12-18T01:17:34.475Z,5.54
2018-12-18T01:20:02.619Z,5.53
2018-12-18T01:22:31.520Z,5.57
2018-12-18T01:24:59.474Z,5.51
2018-12-18T01:27:27.606Z,5.43
2018-12-18T01:29:55.195Z,5.45
2018-12-18T01:32:24.210Z,5.44
2018-12-18T01:34:52.021Z,5.43
2018-12-18T01:37:19.700Z,5.42
2018-12-18T01:39:47.809Z,5.46
2018-12-18T01:42:15.637Z,5.46
2018-12-18T01:44:43.669Z,5.41
2018-12-18T01:47:11.586Z,5.44
2018-12-18T01:49:39.656Z,5.49
2018-12-18T01:52:07.262Z,5.51
2018-12-18T01:54:35.043Z,5.42
2018-12-18T01:57:02.937Z,5.48
2018-12-18T01:59:30.540Z,5.51
2018-12-18T02:01:58.118Z,5.35
2018-12-18T02:04:25.688Z,5.39
2018-12-18T02:06:53.247Z,5.41
2018-12-18T02:09:20.787Z,5.41
2018-12-18T02:11:48.323Z,5.39
2018-12-18T02:14:15.863Z,5.40
2018-12-18T02:16:43.390Z,5.44
2018-12-18T02:19:10.952Z,5.40
2018-12-18T02:21:38.497Z,5.43
2018-12-18T02:24:06.041Z,5.37
2018-12-18T02:26:33.626Z,5.21
2018-12-18T02:29:01.175Z,5.45
2018-12-18T02:31:28.694Z,5.43
2018-12-18T02:33:56.245Z,5.43
2018-12-18T02:36:23.766Z,5.34
2018-12-18T02:38:51.326Z,5.39
2018-12-18T02:41:18.886Z,5.37
2018-12-18T02:43:46.401Z,5.31
2018-12-18T02:46:15.077Z,5.32
2018-12-18T02:48:44.469Z,5.24
2018-12-18T02:51:12.068Z,5.22
2018-12-18T02:53:39.585Z,5.27
2018-12-18T02:56:07.185Z,5.17
2018-12-18T02:58:34.766Z,5.14
2018-12-18T03:01:02.315Z,5.18
2018-12-18T03:03:29.858Z,5.20
2018-12-18T03:05:57.466Z,5.11
2018-12-18T03:08:24.989Z,5.10
2018-12-18T03:10:52.566Z,5.01
2018-12-18T03:13:20.088Z,4.93
2018-12-18T03:15:47.652Z,4.90
2018-12-18T03:18:15.171Z,4.83
2018-12-18T03:20:42.727Z,4.81
2018-12-18T03:23:10.378Z,4.67
2018-12-18T03:25:37.997Z,4.65
2018-12-18T03:28:05.679Z,4.65
2018-12-18T03:30:33.425Z,4.65
2018-12-18T03:33:01.103Z,4.58
2018-12-18T03:35:29.576Z,4.57
2018-12-18T03:37:57.157Z,4.63
2018-12-18T03:40:25.424Z,4.53
2018-12-18T03:42:53.028Z,4.50
2018-12-18T03:45:20.639Z,4.31
2018-12-18T03:47:48.193Z,4.18
2018-12-18T03:50:15.769Z,4.18
2018-12-18T03:52:43.364Z,4.13
2018-12-18T03:55:10.945Z,4.02
2018-12-18T03:57:40.576Z,4.04
2018-12-18T04:00:12.915Z,3.94
2018-12-18T04:02:40.616Z,3.83
2018-12-18T04:05:09.238Z,3.79
2018-12-18T04:07:36.877Z,3.91
2018-12-18T04:10:04.928Z,3.81
2018-12-18T04:12:33.857Z,3.89
2018-12-18T04:15:04.796Z,3.99
2018-12-18T04:17:35.243Z,4.05
2018-12-18T04:20:03.933Z,4.03
2018-12-18T04:22:33.382Z,4.07
2018-12-18T04:25:01.831Z,4.09
2018-12-18T04:27:30.831Z,4.11
2018-12-18T04:29:59.854Z,4.02
2018-12-18T04:32:28.046Z,4.15
2018-12-18T04:34:56.161Z,4.16
2018-12-18T04:37:24.406Z,4.17
2018-12-18T04:39:52.644Z,4.20
2018-12-18T04:42:21.586Z,4.21
2018-12-18T04:44:49.763Z,4.19
2018-12-18T04:47:17.508Z,4.11
2018-12-18T04:49:45.069Z,4.14
2018-12-18T04:52:12.635Z,4.11
2018-12-18T04:54:40.181Z,4.08
2018-12-18T04:57:07.763Z,4.10
2018-12-18T04:59:35.341Z,4.08
2018-12-18T05:02:02.946Z,4.04
2018-12-18T05:04:30.478Z,3.96
2018-12-18T05:06:58.053Z,4.03
2018-12-18T05:09:25.603Z,4.09
2018-12-18T05:11:53.317Z,3.97
2018-12-18T05:14:20.846Z,3.92
2018-12-18T05:16:48.411Z,3.90
2018-12-18T05:19:15.985Z,3.60
2018-12-18T05:21:43.600Z,3.68
2018-12-18T05:24:11.128Z,3.66
2018-12-18T05:26:39.085Z,3.69
2018-12-18T05:29:07.793Z,3.72
2018-12-18T05:31:35.966Z,3.54
2018-12-18T05:34:03.566Z,3.52
2018-12-18T05:36:31.836Z,3.61
2018-12-18T05:39:00.237Z,3.60
2018-12-18T05:41:28.311Z,3.61
2018-12-18T05:43:56.847Z,3.68
2018-12-18T05:46:25.634Z,3.59
2018-12-18T05:48:53.756Z,3.54
2018-12-18T05:51:21.374Z,3.66
2018-12-18T05:53:48.944Z,3.59
2018-12-18T05:56:16.801Z,3.47
2018-12-18T05:58:44.638Z,3.62
2018-12-18T06:01:12.242Z,3.56
2018-12-18T06:03:39.805Z,3.60
2018-12-18T06:06:07.497Z,3.66
2018-12-18T06:08:35.093Z,3.57
2018-12-18T06:11:02.670Z,3.62
2018-12-18T06:13:30.202Z,3.46
2018-12-18T06:15:58.025Z,3.49
2018-12-18T06:18:25.625Z,3.40
2018-12-18T06:20:53.158Z,3.61
2018-12-18T06:23:20.711Z,3.55
2018-12-18T06:25:48.237Z,3.55
2018-12-18T06:28:15.789Z,3.39
2018-12-18T06:30:43.318Z,3.49
2018-12-18T06:33:10.960Z,3.46
2018-12-18T06:35:38.488Z,3.53
2018-12-18T06:38:06.033Z,3.40
2018-12-18T06:40:33.567Z,3.44
2018-12-18T06:43:01.131Z,3.50
2018-12-18T06:45:28.656Z,3.55
2018-12-18T06:47:56.213Z,3.54
2018-12-18T06:50:23.868Z,3.54
2018-12-18T06:52:52.528Z,3.59
2018-12-18T06:55:20.233Z,3.41
2018-12-18T06:57:47.787Z,3.37
2018-12-18T07:00:15.312Z,3.43
2018-12-18T07:02:43.008Z,3.59
2018-12-18T07:05:16.520Z,3.67
2018-12-18T07:07:40.186Z,3.29
2018-12-18T07:10:07.717Z,3.45
2018-12-18T07:12:35.274Z,3.41
2018-12-18T07:15:02.809Z,3.41
2018-12-18T07:17:30.375Z,3.38
2018-12-18T07:19:57.911Z,3.22
2018-12-18T07:22:25.466Z,3.28
2018-12-18T07:24:52.993Z,3.34
2018-12-18T07:27:20.553Z,3.44
2018-12-18T07:29:48.078Z,3.44
2018-12-18T07:32:15.732Z,3.44
2018-12-18T07:34:43.273Z,3.40
2018-12-18T07:37:10.831Z,3.53
2018-12-18T07:39:38.367Z,3.58
2018-12-18T07:42:05.932Z,3.49
2018-12-18T07:44:33.466Z,3.46
2018-12-18T07:47:01.023Z,3.42
2018-12-18T07:49:28.545Z,3.39
2018-12-18T07:51:56.105Z,3.41
2018-12-18T07:54:23.696Z,3.43
2018-12-18T07:56:51.547Z,3.38
2018-12-18T07:59:19.175Z,3.36
2018-12-18T08:01:46.728Z,3.24
2018-12-18T08:04:14.291Z,3.32
2018-12-18T08:06:41.817Z,3.39
2018-12-18T08:09:09.380Z,3.42
2018-12-18T08:11:36.908Z,3.48
2018-12-18T08:14:04.465Z,3.61
2018-12-18T08:16:31.988Z,3.51
2018-12-18T08:18:59.661Z,3.57
2018-12-18T08:21:27.249Z,3.61
2018-12-18T08:23:54.822Z,3.82
2018-12-18T08:26:22.352Z,3.80
2018-12-18T08:28:49.922Z,3.70
2018-12-18T08:31:17.447Z,3.87
2018-12-18T08:33:45.003Z,3.79
2018-12-18T08:36:12.542Z,3.69
2018-12-18T08:38:40.135Z,3.65
2018-12-18T08:41:08.015Z,3.61
2018-12-18T08:43:35.716Z,3.77
2018-12-18T08:46:09.913Z,3.89
2018-12-18T08:48:32.849Z,3.95
2018-12-18T08:51:00.398Z,4.02
2018-12-18T08:53:27.966Z,4.06
2018-12-18T08:55:55.495Z,4.26
2018-12-18T08:58:23.057Z,4.15
2018-12-18T09:00:50.584Z,4.14
2018-12-18T09:03:18.177Z,4.15
2018-12-18T09:05:45.728Z,4.12
2018-12-18T09:08:13.300Z,4.05
2018-12-18T09:10:40.844Z,4.12
2018-12-18T09:13:08.401Z,4.12
2018-12-18T09:15:41.472Z,4.20
2018-12-18T09:18:09.031Z,4.17
2018-12-18T09:20:36.557Z,4.14
2018-12-18T09:23:04.129Z,4.16
2018-12-18T09:25:31.646Z,4.08
2018-12-18T09:27:59.203Z,4.22
2018-12-18T09:30:26.720Z,4.13
2018-12-18T09:32:54.344Z,4.14
2018-12-18T09:35:21.873Z,4.16
2018-12-18T09:37:51.416Z,4.19
2018-12-18T09:40:20.972Z,4.23
2018-12-18T09:42:54.263Z,4.21
2018-12-18T09:45:21.843Z,4.24
2018-12-18T09:47:49.408Z,4.35
2018-12-18T09:50:17.000Z,4.44
2018-12-18T09:52:44.523Z,4.51
2018-12-18T09:55:12.177Z,4.53
2018-12-18T09:57:45.372Z,4.57
2018-12-18T10:00:12.933Z,4.67
2018-12-18T10:02:40.461Z,4.78
2018-12-18T10:05:08.978Z,4.77
2018-12-18T10:07:38.270Z,4.89
2018-12-18T10:10:07.688Z,5.03
2018-12-18T10:12:40.821Z,5.07
2018-12-18T10:15:09.180Z,5.11
2018-12-18T10:17:38.722Z,5.20
2018-12-18T10:20:07.603Z,5.33
2018-12-18T10:22:36.632Z,5.43
2018-12-18T10:25:04.652Z,5.47
2018-12-18T10:27:32.360Z,5.57
2018-12-18T10:30:00.062Z,5.61
2018-12-18T10:32:32.035Z,5.70
2018-12-18T10:34:59.897Z,5.76
2018-12-18T10:37:27.444Z,5.81
2018-12-18T10:39:55.649Z,5.91
2018-12-18T10:42:23.272Z,6.00
2018-12-18T10:44:51.363Z,6.00
2018-12-18T10:47:19.223Z,6.10
2018-12-18T10:49:48.158Z,6.14
2018-12-18T10:52:16.027Z,6.18
2018-12-18T10:54:43.793Z,6.33
2018-12-18T10:57:11.729Z,6.43
2018-12-18T10:59:39.280Z,6.44
2018-12-18T11:02:07.722Z,6.47
2018-12-18T11:04:35.550Z,6.50
2018-12-18T11:07:03.837Z,6.54
2018-12-18T11:09:31.422Z,6.59
2018-12-18T11:11:58.970Z,6.61
2018-12-18T11:14:26.467Z,6.68
2018-12-18T11:16:54.010Z,6.73
2018-12-18T11:19:22.391Z,6.82
2018-12-18T11:21:50.701Z,6.92
2018-12-18T11:24:18.297Z,6.96
2018-12-18T11:26:46.137Z,6.96
2018-12-18T11:29:13.675Z,6.98
2018-12-18T11:31:41.217Z,7.07
2018-12-18T11:34:08.728Z,7.05
2018-12-18T11:36:36.268Z,7.02
2018-12-18T11:39:06.100Z,7.01
2018-12-18T11:41:33.651Z,7.06
2018-12-18T11:44:01.151Z,7.06
2018-12-18T11:46:28.704Z,7.02
2018-12-18T11:48:56.215Z,7.05
2018-12-18T11:51:23.756Z,7.00
2018-12-18T11:53:52.482Z,7.05
2018-12-18T11:56:20.921Z,7.06
2018-12-18T11:58:49.113Z,7.01
2018-12-18T12:01:16.677Z,7.06
2018-12-18T12:03:44.300Z,7.05
2018-12-18T12:06:12.871Z,7.07
2018-12-18T12:08:40.862Z,7.09
2018-12-18T12:11:09.089Z,7.05
2018-12-18T12:13:37.062Z,7.16
2018-12-18T12:16:17.267Z,7.18
2018-12-18T12:18:46.955Z,7.23
2018-12-18T12:21:15.803Z,7.30
2018-12-18T12:23:44.281Z,7.25
2018-12-18T12:26:19.051Z,7.23
2018-12-18T12:28:47.018Z,7.27
2018-12-18T12:31:16.609Z,7.29
2018-12-18T12:33:45.238Z,7.37
2018-12-18T12:36:13.783Z,7.38
2018-12-18T12:38:42.062Z,7.31
2018-12-18T12:41:10.332Z,7.39
2018-12-18T12:43:39.140Z,7.41
2018-12-18T12:46:07.854Z,7.39
2018-12-18T12:48:41.797Z,7.36
2018-12-18T12:51:10.271Z,7.49
2018-12-18T12:53:39.234Z,7.57
2018-12-18T12:56:08.903Z,7.52
2018-12-18T12:58:38.026Z,7.53
2018-12-18T13:01:06.936Z,7.55
2018-12-18T13:03:35.077Z,7.52
2018-12-18T13:06:03.737Z,7.53
2018-12-18T13:08:35.134Z,7.57
2018-12-18T13:11:03.018Z,7.65
2018-12-18T13:13:31.810Z,7.64
2018-12-18T13:15:59.797Z,7.69
2018-12-18T13:18:28.719Z,7.69
2018-12-18T13:20:56.890Z,7.73
2018-12-18T13:23:25.209Z,7.76
2018-12-18T13:25:53.292Z,7.76
2018-12-18T13:28:21.463Z,7.78
2018-12-18T13:30:49.585Z,7.89
2018-12-18T13:33:18.548Z,7.86
2018-12-18T13:35:46.758Z,7.98
2018-12-18T13:38:14.951Z,7.91
2018-12-18T13:40:43.070Z,7.90
2018-12-18T13:43:13.168Z,7.94
2018-12-18T13:45:42.139Z,7.88
2018-12-18T13:48:10.208Z,7.89
2018-12-18T13:50:38.228Z,7.88
2018-12-18T13:53:07.362Z,7.84
2018-12-18T13:55:36.708Z,7.84
2018-12-18T13:58:05.194Z,7.82
2018-12-18T14:00:33.402Z,7.75
2018-12-18T14:03:02.160Z,7.66
2018-12-18T14:05:30.001Z,7.72
2018-12-18T14:08:00.857Z,7.69
2018-12-18T14:10:28.883Z,7.63
2018-12-18T14:12:57.947Z,7.59
2018-12-18T14:15:26.027Z,7.49
2018-12-18T14:17:56.530Z,7.45
2018-12-18T14:20:24.580Z,7.45
2018-12-18T14:22:52.668Z,7.37
2018-12-18T14:25:20.665Z,7.29
2018-12-18T14:27:48.829Z,7.21
2018-12-18T14:30:16.740Z,7.23
2018-12-18T14:32:44.712Z,7.23
2018-12-18T14:35:12.900Z,7.14
2018-12-18T14:37:40.968Z,7.08
2018-12-18T14:40:09.192Z,6.98
2018-12-18T14:42:37.942Z,6.98
2018-12-18T14:45:06.676Z,6.97
2018-12-18T14:47:34.549Z,6.88
2018-12-18T14:50:02.932Z,6.79
2018-12-18T14:52:31.183Z,6.80
2018-12-18T14:55:00.049Z,6.70
2018-12-18T14:57:28.854Z,6.65
2018-12-18T14:59:56.877Z,6.59
2018-12-18T15:02:24.996Z,6.54
2018-12-18T15:04:53.001Z,6.47
2018-12-18T15:07:21.099Z,6.46
2018-12-18T15:09:49.134Z,6.18
2018-12-18T15:12:17.765Z,6.16
2018-12-18T15:14:45.639Z,6.09
2018-12-18T15:17:14.504Z,6.10
2018-12-18T15:19:42.598Z,6.00
2018-12-18T15:22:11.676Z,5.90
2018-12-18T15:24:40.449Z,5.91
2018-12-18T15:27:09.293Z,5.91
2018-12-18T15:29:37.382Z,5.74
2018-12-18T15:32:05.883Z,5.54
2018-12-18T15:34:37.308Z,5.52
2018-12-18T15:37:09.740Z,5.43
2018-12-18T15:39:37.489Z,5.24
2018-12-18T15:42:05.675Z,5.24
2018-12-18T15:44:33.735Z,5.19
2018-12-18T15:47:02.586Z,5.18
2018-12-18T15:49:30.621Z,5.10
2018-12-18T15:51:58.195Z,4.98
2018-12-18T15:54:25.733Z,4.94
2018-12-18T15:56:53.249Z,4.87
2018-12-18T15:59:20.791Z,4.65
2018-12-18T16:01:48.688Z,4.63
2018-12-18T16:04:16.233Z,4.61
2018-12-18T16:06:43.748Z,4.56
2018-12-18T16:09:11.307Z,4.35
2018-12-18T16:11:39.678Z,4.33
2018-12-18T16:14:07.817Z,4.37
2018-12-18T16:16:35.399Z,4.48
2018-12-18T16:19:02.938Z,4.51
2018-12-18T16:21:31.420Z,4.41
2018-12-18T16:23:59.153Z,4.41
2018-12-18T16:26:26.843Z,4.30
2018-12-18T16:28:54.491Z,4.23
2018-12-18T16:31:22.214Z,4.21
2018-12-18T16:33:49.872Z,4.11
2018-12-18T16:36:17.455Z,3.99
2018-12-18T16:38:45.338Z,3.93
2018-12-18T16:41:12.968Z,3.96
2018-12-18T16:43:40.497Z,3.66
2018-12-18T16:46:08.067Z,3.67
2018-12-18T16:48:35.582Z,3.67
2018-12-18T16:51:03.191Z,3.62
2018-12-18T16:53:30.707Z,3.69
2018-12-18T16:55:58.546Z,3.57
2018-12-18T16:58:28.302Z,3.48
2018-12-18T17:00:56.117Z,3.35
2018-12-18T17:03:23.647Z,3.31
2018-12-18T17:05:51.193Z,3.28
2018-12-18T17:08:18.715Z,3.24
2018-12-18T17:10:46.362Z,3.19
2018-12-18T17:13:14.398Z,3.03
2018-12-18T17:15:42.163Z,2.93
2018-12-18T17:18:10.213Z,3.01
2018-12-18T17:20:38.688Z,2.94
2018-12-18T17:23:06.872Z,2.91
2018-12-18T17:25:34.735Z,2.77
2018-12-18T17:28:03.384Z,2.41
2018-12-18T17:30:31.911Z,2.60
2018-12-18T17:33:00.776Z,2.67
2018-12-18T17:35:28.842Z,2.37
2018-12-18T17:37:56.395Z,2.33
2018-12-18T17:40:24.143Z,2.01
2018-12-18T17:42:52.120Z,2.03
2018-12-18T17:45:21.054Z,2.11
2018-12-18T17:47:49.577Z,2.29
2018-12-18T17:50:18.553Z,2.33
2018-12-18T17:52:47.157Z,2.09
2018-12-18T17:55:14.748Z,2.01
2018-12-18T17:57:42.305Z,1.89
2018-12-18T18:00:10.041Z,1.97
2018-12-18T18:02:38.029Z,1.85
2018-12-18T18:05:06.522Z,1.95
2018-12-18T18:07:34.857Z,2.11
2018-12-18T18:10:03.106Z,2.13
2018-12-18T18:12:30.777Z,2.08
2018-12-18T18:14:58.620Z,1.79
2018-12-18T18:17:27.582Z,1.62
2018-12-18T18:19:55.329Z,1.53
2018-12-18T18:22:24.613Z,1.56
2018-12-18T18:24:54.529Z,1.81
2018-12-18T18:27:22.444Z,1.73
2018-12-18T18:29:50.216Z,1.83
2018-12-18T18:34:55.525Z,1.69
2018-12-18T18:37:23.081Z,0.99
2018-12-18T18:39:50.770Z,1.04
2018-12-18T18:42:18.332Z,0.90
2018-12-18T18:44:47.725Z,0.79
2018-12-18T18:47:15.403Z,1.05
2018-12-18T18:49:43.283Z,1.29
2018-12-18T18:52:12.391Z,1.27
2018-12-18T18:54:40.489Z,1.21
2018-12-18T18:57:08.176Z,1.26
2018-12-18T18:59:35.767Z,1.33
2018-12-18T19:02:03.846Z,1.04
2018-12-18T19:04:31.616Z,1.08
2018-12-18T19:06:59.307Z,1.12
2018-12-18T19:09:27.627Z,1.14
2018-12-18T19:11:55.308Z,1.02
2018-12-18T19:14:23.172Z,1.08
2018-12-18T19:16:50.844Z,1.07
2018-12-18T19:19:18.417Z,1.04
2018-12-18T19:21:46.335Z,1.16
2018-12-18T19:24:14.397Z,1.13
2018-12-18T19:26:44.831Z,0.90
2018-12-18T19:29:13.758Z,0.76
2018-12-18T19:31:41.524Z,0.84
2018-12-18T19:34:09.089Z,0.76
2018-12-18T19:36:38.381Z,1.04
2018-12-18T19:39:07.531Z,1.09
2018-12-18T19:41:35.156Z,1.06
2018-12-18T19:44:03.087Z,1.11
2018-12-18T19:46:31.086Z,1.09
2018-12-18T19:48:58.650Z,1.01
2018-12-18T19:51:27.002Z,1.01
2018-12-18T19:53:54.596Z,1.02
2018-12-18T19:56:23.759Z,1.06
2018-12-18T19:58:51.286Z,1.34
2018-12-18T20:01:19.029Z,1.18
2018-12-18T20:03:46.580Z,1.15
2018-12-18T20:06:14.187Z,1.04
2018-12-18T20:08:41.728Z,0.90
2018-12-18T20:11:09.259Z,1.12
2018-12-18T20:13:36.809Z,1.12
2018-12-18T20:16:04.335Z,1.01
2018-12-18T20:18:32.202Z,0.72
2018-12-18T20:20:59.920Z,0.83
2018-12-18T20:23:27.485Z,0.84
2018-12-18T20:25:55.097Z,1.06
2018-12-18T20:28:22.689Z,1.15
2018-12-18T20:30:50.217Z,1.14
2018-12-18T20:33:17.760Z,1.30
2018-12-18T20:35:45.276Z,1.43
2018-12-18T20:38:16.839Z,1.51
2018-12-18T20:40:43.312Z,1.42
2018-12-18T20:43:10.982Z,1.55
2018-12-18T20:45:38.516Z,1.68
2018-12-18T20:48:06.077Z,1.55
2018-12-18T20:50:33.605Z,1.58
2018-12-18T20:53:01.172Z,1.36
2018-12-18T20:55:28.712Z,1.44
2018-12-18T20:57:58.588Z,1.47
2018-12-18T21:00:26.217Z,1.58
2018-12-18T21:03:02.603Z,1.82
2018-12-18T21:05:30.132Z,1.96
2018-12-18T21:07:57.734Z,2.05
2018-12-18T21:10:25.265Z,2.01
2018-12-18T21:12:54.815Z,1.95
2018-12-18T21:15:23.257Z,1.92
2018-12-18T21:17:50.903Z,1.94
2018-12-18T21:20:18.438Z,1.96
2018-12-18T21:22:45.980Z,1.91
2018-12-18T21:25:18.900Z,2.07
2018-12-18T21:27:43.082Z,2.04
2018-12-18T21:30:10.766Z,2.15
2018-12-18T21:32:38.295Z,2.26
2018-12-18T21:35:05.953Z,2.57
2018-12-18T21:37:33.489Z,2.64
2018-12-18T21:40:01.040Z,2.77
2018-12-18T21:42:28.551Z,2.78
2018-12-18T21:44:56.212Z,2.72
2018-12-18T21:47:23.728Z,2.77
2018-12-18T21:49:51.289Z,2.32
2018-12-18T21:52:18.963Z,2.46
2018-12-18T21:54:46.517Z,2.10
2018-12-18T21:57:14.059Z,2.06
2018-12-18T21:59:41.609Z,2.26
2018-12-18T22:02:09.140Z,2.42
2018-12-18T22:04:36.696Z,2.48
2018-12-18T22:07:04.904Z,2.39
2018-12-18T22:09:32.467Z,2.37
2018-12-18T22:11:59.985Z,2.30
2018-12-18T22:14:27.536Z,2.44
2018-12-18T22:16:55.060Z,2.41
2018-12-18T22:19:22.610Z,2.35
2018-12-18T22:21:50.129Z,2.50
2018-12-18T22:24:17.698Z,2.51
2018-12-18T22:26:45.219Z,2.40
2018-12-18T22:29:12.813Z,2.40
2018-12-18T22:31:40.617Z,2.15
2018-12-18T22:34:08.204Z,2.25
2018-12-18T22:36:35.751Z,2.42
2018-12-18T22:39:05.818Z,2.68
2018-12-18T22:41:33.506Z,2.78
2018-12-18T22:44:01.589Z,2.69
2018-12-18T22:46:29.242Z,2.38
2018-12-18T22:48:59.376Z,2.27
2018-12-18T22:51:27.679Z,2.33
2018-12-18T22:53:55.894Z,2.46
2018-12-18T22:56:24.752Z,2.50
2018-12-18T22:58:53.114Z,2.52
2018-12-18T23:01:26.561Z,2.15
2018-12-18T23:03:54.165Z,1.92
2018-12-18T23:06:22.367Z,2.00
2018-12-18T23:08:56.016Z,2.28
2018-12-18T23:11:24.177Z,2.26
2018-12-18T23:13:53.359Z,2.45
2018-12-18T23:16:21.550Z,2.47
2018-12-18T23:18:49.694Z,2.50
2018-12-18T23:21:17.880Z,2.32
2018-12-18T23:23:46.742Z,2.02
2018-12-18T23:26:15.149Z,2.09
2018-12-18T23:28:44.150Z,1.87
2018-12-18T23:31:12.010Z,2.18
2018-12-18T23:33:39.639Z,2.21
2018-12-18T23:36:07.369Z,2.23
2018-12-18T23:38:35.126Z,2.23
2018-12-18T23:41:03.037Z,2.24
2018-12-18T23:43:30.846Z,2.28
2018-12-18T23:45:58.773Z,2.26
2018-12-18T23:48:26.783Z,2.37
2018-12-18T23:50:54.869Z,2.29
2018-12-18T23:53:22.726Z,2.44
2018-12-18T23:55:50.949Z,2.44
2018-12-18T23:58:18.917Z,2.43
